createdAt,value
2023-05-05T00:01:04.874Z,100.00
2023-05-05T00:02:07.261Z,100.00
2023-05-05T00:03:12.062Z,100.00
2023-05-05T00:04:14.148Z,100.00
2023-05-05T00:05:18.876Z,100.00
2023-05-05T00:06:23.540Z,100.00
2023-05-05T00:07:28.215Z,100.00
2023-05-05T00:08:30.357Z,100.00
2023-05-05T00:09:34.984Z,100.00
2023-05-05T00:10:36.997Z,100.00
2023-05-05T00:11:41.591Z,100.00
2023-05-05T00:12:43.702Z,100.00
2023-05-05T00:13:48.384Z,100.00
2023-05-05T00:14:50.527Z,100.00
2023-05-05T00:15:56.409Z,100.00
2023-05-05T00:16:58.468Z,100.00
2023-05-05T00:18:03.167Z,100.00
2023-05-05T00:19:05.674Z,100.00
2023-05-05T00:20:12.015Z,100.00
2023-05-05T00:21:14.059Z,100.00
2023-05-05T00:22:21.685Z,100.00
2023-05-05T00:23:23.781Z,100.00
2023-05-05T00:24:28.424Z,100.00
2023-05-05T00:25:30.809Z,100.00
2023-05-05T00:26:35.539Z,100.00
2023-05-05T00:27:39.506Z,100.00
2023-05-05T00:28:45.493Z,100.00
2023-05-05T00:29:47.601Z,100.00
2023-05-05T00:30:52.281Z,100.00
2023-05-05T00:31:54.503Z,100.00
2023-05-05T00:32:59.410Z,100.00
2023-05-05T00:34:01.887Z,100.00
2023-05-05T00:35:06.939Z,100.00
2023-05-05T00:36:09.530Z,100.00
2023-05-05T00:37:14.223Z,100.00
2023-05-05T00:38:19.114Z,100.00
2023-05-05T00:39:23.751Z,100.00
2023-05-05T00:40:26.121Z,100.00
2023-05-05T00:41:30.836Z,100.00
2023-05-05T00:42:39.982Z,100.00
2023-05-05T00:43:44.598Z,100.00
2023-05-05T00:44:47.195Z,100.00
2023-05-05T00:46:00.142Z,100.00
2023-05-05T00:47:02.329Z,100.00
2023-05-05T00:48:08.198Z,100.00
2023-05-05T00:49:10.595Z,100.00
2023-05-05T00:50:24.248Z,100.00
2023-05-05T00:51:32.182Z,100.00
2023-05-05T00:52:35.068Z,100.00
2023-05-05T00:53:45.137Z,100.00
2023-05-05T00:54:47.526Z,100.00
2023-05-05T00:55:53.451Z,100.00
2023-05-05T00:56:55.634Z,100.00
2023-05-05T00:58:01.170Z,100.00
2023-05-05T00:59:04.037Z,100.00
2023-05-05T01:00:10.785Z,100.00
2023-05-05T01:01:13.067Z,100.00
2023-05-05T01:02:17.776Z,100.00
2023-05-05T01:03:21.597Z,100.00
2023-05-05T01:04:28.568Z,100.00
2023-05-05T01:05:42.789Z,100.00
2023-05-05T01:06:56.844Z,100.00
2023-05-05T01:08:19.671Z,100.00
2023-05-05T01:09:41.294Z,100.00
2023-05-05T01:10:49.080Z,100.00
2023-05-05T01:12:03.835Z,100.00
2023-05-05T01:13:19.401Z,100.00
2023-05-05T01:14:31.384Z,100.00
2023-05-05T01:15:36.361Z,100.00
2023-05-05T01:16:44.021Z,100.00
2023-05-05T01:17:55.616Z,100.00
2023-05-05T01:19:03.773Z,100.00
2023-05-05T01:20:15.660Z,100.00
2023-05-05T01:21:27.689Z,100.00
2023-05-05T01:22:36.830Z,100.00
2023-05-05T01:24:00.767Z,100.00
2023-05-05T01:25:31.152Z,100.00
2023-05-05T01:26:54.032Z,100.00
2023-05-05T01:28:19.715Z,100.00
2023-05-05T01:29:44.164Z,100.00
2023-05-05T01:31:03.818Z,100.00
2023-05-05T01:32:13.798Z,100.00
2023-05-05T01:33:18.999Z,100.00
2023-05-05T01:34:27.718Z,100.00
2023-05-05T01:35:33.329Z,100.00
2023-05-05T01:36:42.471Z,100.00
2023-05-05T01:37:51.059Z,100.00
2023-05-05T01:39:02.049Z,100.00
2023-05-05T01:40:08.486Z,100.00
2023-05-05T01:41:17.284Z,100.00
2023-05-05T01:42:21.567Z,100.00
2023-05-05T01:43:29.510Z,100.00
2023-05-05T01:44:33.405Z,100.00
2023-05-05T01:45:41.883Z,100.00
2023-05-05T01:46:43.968Z,100.00
2023-05-05T01:47:52.168Z,100.00
2023-05-05T01:48:56.225Z,100.00
2023-05-05T01:50:01.679Z,100.00
2023-05-05T01:51:05.666Z,100.00
2023-05-05T01:52:12.609Z,100.00
2023-05-05T01:53:17.757Z,100.00
2023-05-05T01:54:24.379Z,100.00
2023-05-05T01:55:29.410Z,100.00
2023-05-05T01:56:35.474Z,100.00
2023-05-05T01:57:40.966Z,100.00
2023-05-05T01:58:47.958Z,100.00
2023-05-05T01:59:52.145Z,100.00
2023-05-05T02:00:59.595Z,100.00
2023-05-05T02:02:03.266Z,100.00
2023-05-05T02:03:11.937Z,100.00
2023-05-05T02:04:15.338Z,100.00
2023-05-05T02:05:23.034Z,100.00
2023-05-05T02:06:27.013Z,100.00
2023-05-05T02:07:33.346Z,100.00
2023-05-05T02:08:38.267Z,100.00
2023-05-05T02:09:45.495Z,100.00
2023-05-05T02:10:48.109Z,100.00
2023-05-05T02:11:53.864Z,100.00
2023-05-05T02:12:57.058Z,100.00
2023-05-05T02:14:03.282Z,100.00
2023-05-05T02:15:06.963Z,100.00
2023-05-05T02:16:12.543Z,100.00
2023-05-05T02:17:17.484Z,100.00
2023-05-05T02:18:25.891Z,100.00
2023-05-05T02:19:31.132Z,100.00
2023-05-05T02:20:36.829Z,100.00
2023-05-05T02:21:39.057Z,100.00
2023-05-05T02:22:44.269Z,100.00
2023-05-05T02:23:47.528Z,100.00
2023-05-05T02:24:52.137Z,100.00
2023-05-05T02:25:57.828Z,100.00
2023-05-05T02:27:05.651Z,100.00
2023-05-05T02:28:11.733Z,100.00
2023-05-05T02:29:21.706Z,100.00
2023-05-05T02:30:25.205Z,100.00
2023-05-05T02:31:31.260Z,100.00
2023-05-05T02:32:36.723Z,100.00
2023-05-05T02:33:46.083Z,100.00
2023-05-05T02:34:49.804Z,100.00
2023-05-05T02:35:56.365Z,100.00
2023-05-05T02:37:01.257Z,100.00
2023-05-05T02:38:08.184Z,100.00
2023-05-05T02:39:17.832Z,100.00
2023-05-05T02:40:24.772Z,100.00
2023-05-05T02:41:31.658Z,100.00
2023-05-05T02:42:37.486Z,100.00
2023-05-05T02:43:45.170Z,100.00
2023-05-05T02:44:48.416Z,100.00
2023-05-05T02:45:53.062Z,100.00
2023-05-05T02:46:55.201Z,100.00
2023-05-05T02:48:00.006Z,100.00
2023-05-05T02:49:04.723Z,100.00
2023-05-05T02:50:11.343Z,100.00
2023-05-05T02:51:13.455Z,100.00
2023-05-05T02:52:18.137Z,100.00
2023-05-05T02:53:26.454Z,100.00
2023-05-05T02:54:31.698Z,100.00
2023-05-05T02:55:39.605Z,100.00
2023-05-05T02:56:47.092Z,100.00
2023-05-05T02:57:53.703Z,100.00
2023-05-05T02:59:12.856Z,100.00
2023-05-05T03:00:22.651Z,100.00
2023-05-05T03:01:37.359Z,100.00
2023-05-05T03:02:45.254Z,100.00
2023-05-05T03:03:58.101Z,100.00
2023-05-05T03:05:07.191Z,100.00
2023-05-05T03:06:18.019Z,100.00
2023-05-05T03:07:25.319Z,100.00
2023-05-05T03:08:32.843Z,100.00
2023-05-05T03:09:40.345Z,100.00
2023-05-05T03:10:50.788Z,100.00
2023-05-05T03:12:02.372Z,100.00
2023-05-05T03:13:09.915Z,100.00
2023-05-05T03:14:13.995Z,100.00
2023-05-05T03:15:19.501Z,100.00
2023-05-05T03:16:25.017Z,100.00
2023-05-05T03:17:32.472Z,100.00
2023-05-05T03:18:37.691Z,100.00
2023-05-05T03:19:45.025Z,100.00
2023-05-05T03:20:50.556Z,100.00
2023-05-05T03:21:55.373Z,100.00
2023-05-05T03:22:57.967Z,100.00
2023-05-05T03:24:02.933Z,100.00
2023-05-05T03:25:06.520Z,100.00
2023-05-05T03:26:11.282Z,100.00
2023-05-05T03:27:13.326Z,100.00
2023-05-05T03:28:18.715Z,100.00
2023-05-05T03:29:20.800Z,100.00
2023-05-05T03:30:25.488Z,100.00
2023-05-05T03:31:28.681Z,100.00
2023-05-05T03:32:33.475Z,100.00
2023-05-05T03:33:35.665Z,100.00
2023-05-05T03:34:40.337Z,100.00
2023-05-05T03:35:42.667Z,100.00
2023-05-05T03:36:50.017Z,100.00
2023-05-05T03:37:55.726Z,100.00
2023-05-05T03:38:58.399Z,100.00
2023-05-05T03:40:03.037Z,100.00
2023-05-05T03:41:05.118Z,100.00
2023-05-05T03:42:09.794Z,100.00
2023-05-05T03:43:11.831Z,100.00
2023-05-05T03:44:16.520Z,100.00
2023-05-05T03:45:18.891Z,100.00
2023-05-05T03:46:23.611Z,100.00
2023-05-05T03:47:25.815Z,100.00
2023-05-05T03:48:30.696Z,100.00
2023-05-05T03:49:32.802Z,100.00
2023-05-05T03:50:37.783Z,100.00
2023-05-05T03:51:39.873Z,100.00
2023-05-05T03:52:47.532Z,100.00
2023-05-05T03:53:49.616Z,100.00
2023-05-05T03:54:54.417Z,100.00
2023-05-05T03:55:56.528Z,100.00
2023-05-05T03:57:01.176Z,100.00
2023-05-05T03:58:03.324Z,100.00
2023-05-05T03:59:09.005Z,100.00
2023-05-05T04:00:12.369Z,100.00
2023-05-05T04:01:17.128Z,100.00
2023-05-05T04:02:19.251Z,100.00
2023-05-05T04:03:24.137Z,100.00
2023-05-05T04:04:26.380Z,100.00
2023-05-05T04:05:31.121Z,100.00
2023-05-05T04:06:33.288Z,100.00
2023-05-05T04:07:37.965Z,100.00
2023-05-05T04:08:42.639Z,100.00
2023-05-05T04:09:47.480Z,100.00
2023-05-05T04:10:49.557Z,100.00
2023-05-05T04:11:54.166Z,100.00
2023-05-05T04:12:56.271Z,100.00
2023-05-05T04:14:00.997Z,100.00
2023-05-05T04:15:03.292Z,100.00
2023-05-05T04:16:09.013Z,100.00
2023-05-05T04:17:11.118Z,100.00
2023-05-05T04:18:15.835Z,100.00
2023-05-05T04:19:18.805Z,100.00
2023-05-05T04:20:23.491Z,100.00
2023-05-05T04:21:25.751Z,100.00
2023-05-05T04:22:30.382Z,100.00
2023-05-05T04:23:32.546Z,100.00
2023-05-05T04:24:39.926Z,100.00
2023-05-05T04:25:42.034Z,100.00
2023-05-05T04:26:46.652Z,100.00
2023-05-05T04:27:48.782Z,100.00
2023-05-05T04:28:53.472Z,100.00
2023-05-05T04:29:55.722Z,100.00
2023-05-05T04:31:01.385Z,100.00
2023-05-05T04:32:03.498Z,100.00
2023-05-05T04:33:08.406Z,100.00
2023-05-05T04:34:11.038Z,100.00
2023-05-05T04:35:15.989Z,100.00
2023-05-05T04:36:19.267Z,100.00
2023-05-05T04:37:23.953Z,100.00
2023-05-05T04:38:26.119Z,100.00
2023-05-05T04:39:30.785Z,100.00
2023-05-05T04:40:39.007Z,100.00
2023-05-05T04:41:43.691Z,100.00
2023-05-05T04:42:45.766Z,100.00
2023-05-05T04:43:50.459Z,100.00
2023-05-05T04:44:52.670Z,100.00
2023-05-05T04:45:57.738Z,100.00
2023-05-05T04:47:00.799Z,100.00
2023-05-05T04:48:05.632Z,100.00
2023-05-05T04:49:07.732Z,100.00
2023-05-05T04:50:14.046Z,100.00
2023-05-05T04:51:16.114Z,100.00
2023-05-05T04:52:20.931Z,100.00
2023-05-05T04:53:22.997Z,100.00
2023-05-05T04:54:27.615Z,100.00
2023-05-05T04:55:29.692Z,100.00
2023-05-05T04:56:37.288Z,100.00
2023-05-05T04:57:39.445Z,100.00
2023-05-05T04:58:44.126Z,100.00
2023-05-05T04:59:46.175Z,100.00
2023-05-05T05:00:50.879Z,100.00
2023-05-05T05:01:52.963Z,100.00
2023-05-05T05:02:58.297Z,100.00
2023-05-05T05:04:00.587Z,100.00
2023-05-05T05:05:05.335Z,100.00
2023-05-05T05:06:07.666Z,100.00
2023-05-05T05:07:13.552Z,100.00
2023-05-05T05:08:16.191Z,100.00
2023-05-05T05:09:20.885Z,100.00
2023-05-05T05:10:22.975Z,100.00
2023-05-05T05:11:27.845Z,100.00
2023-05-05T05:12:32.641Z,100.00
2023-05-05T05:13:37.342Z,100.00
2023-05-05T05:14:39.771Z,100.00
2023-05-05T05:15:44.989Z,100.00
2023-05-05T05:16:51.324Z,100.00
2023-05-05T05:17:56.236Z,100.00
2023-05-05T05:18:59.595Z,100.00
2023-05-05T05:20:05.644Z,100.00
2023-05-05T05:21:07.814Z,100.00
2023-05-05T05:22:12.470Z,100.00
2023-05-05T05:23:14.655Z,100.00
2023-05-05T05:24:19.319Z,100.00
2023-05-05T05:25:23.970Z,100.00
2023-05-05T05:26:26.150Z,100.00
2023-05-05T05:27:30.770Z,100.00
2023-05-05T05:28:35.486Z,100.00
2023-05-05T05:29:40.133Z,100.00
2023-05-05T05:30:42.197Z,100.00
2023-05-05T05:31:46.854Z,100.00
2023-05-05T05:32:48.933Z,100.00
2023-05-05T05:33:53.659Z,100.00
2023-05-05T05:34:55.799Z,100.00
2023-05-05T05:36:00.415Z,100.00
2023-05-05T05:37:02.462Z,100.00
2023-05-05T05:38:07.161Z,100.00
2023-05-05T05:39:09.256Z,100.00
2023-05-05T05:40:14.756Z,100.00
2023-05-05T05:41:19.414Z,100.00
2023-05-05T05:42:21.454Z,100.00
2023-05-05T05:43:26.088Z,100.00
2023-05-05T05:44:30.717Z,100.00
2023-05-05T05:45:35.439Z,100.00
2023-05-05T05:46:38.049Z,100.00
2023-05-05T05:47:42.814Z,100.00
2023-05-05T05:48:44.963Z,100.00
2023-05-05T05:49:49.597Z,100.00
2023-05-05T05:50:51.599Z,100.00
2023-05-05T05:51:56.214Z,100.00
2023-05-05T05:52:58.264Z,100.00
2023-05-05T05:54:02.902Z,100.00
2023-05-05T05:55:06.687Z,100.00
2023-05-05T05:56:12.423Z,100.00
2023-05-05T05:57:14.528Z,100.00
2023-05-05T05:58:19.643Z,100.00
2023-05-05T05:59:21.726Z,100.00
2023-05-05T06:00:29.015Z,100.00
2023-05-05T06:01:33.715Z,100.00
2023-05-05T06:02:35.886Z,100.00
2023-05-05T06:03:40.766Z,100.00
2023-05-05T06:04:43.037Z,100.00
2023-05-05T06:05:47.987Z,100.00
2023-05-05T06:06:52.677Z,100.00
2023-05-05T06:07:54.765Z,100.00
2023-05-05T06:08:59.761Z,100.00
2023-05-05T06:10:14.350Z,100.00
2023-05-05T06:11:19.653Z,100.00
2023-05-05T06:12:21.892Z,100.00
2023-05-05T06:13:26.623Z,100.00
2023-05-05T06:14:28.784Z,100.00
2023-05-05T06:15:36.056Z,100.00
2023-05-05T06:16:40.804Z,100.00
2023-05-05T06:17:42.877Z,100.00
2023-05-05T06:18:47.547Z,100.00
2023-05-05T06:19:49.663Z,100.00
2023-05-05T06:20:54.695Z,100.00
2023-05-05T06:21:56.711Z,100.00
2023-05-05T06:23:01.345Z,100.00
2023-05-05T06:24:03.643Z,100.00
2023-05-05T06:25:09.454Z,100.00
2023-05-05T06:26:11.612Z,100.00
2023-05-05T06:27:16.245Z,100.00
2023-05-05T06:28:18.910Z,100.00
2023-05-05T06:29:23.561Z,100.00
2023-05-05T06:30:26.357Z,100.00
2023-05-05T06:31:33.712Z,100.00
2023-05-05T06:32:35.852Z,100.00
2023-05-05T06:33:40.527Z,100.00
2023-05-05T06:34:44.801Z,100.00
2023-05-05T06:35:49.961Z,100.00
2023-05-05T06:36:52.049Z,100.00
2023-05-05T06:37:56.709Z,100.00
2023-05-05T06:38:58.771Z,100.00
2023-05-05T06:40:03.422Z,100.00
2023-05-05T06:41:05.619Z,100.00
2023-05-05T06:42:10.313Z,100.00
2023-05-05T06:43:12.416Z,100.00
2023-05-05T06:44:17.074Z,100.00
2023-05-05T06:45:19.207Z,100.00
2023-05-05T06:46:23.848Z,100.00
2023-05-05T06:47:28.507Z,100.00
2023-05-05T06:48:33.191Z,100.00
2023-05-05T06:49:35.279Z,100.00
2023-05-05T06:50:39.992Z,100.00
2023-05-05T06:51:42.927Z,100.00
2023-05-05T06:52:47.751Z,100.00
2023-05-05T06:53:50.041Z,100.00
2023-05-05T06:54:54.694Z,100.00
2023-05-05T06:55:59.280Z,100.00
2023-05-05T06:57:01.403Z,100.00
2023-05-05T06:58:06.719Z,100.00
2023-05-05T06:59:08.727Z,100.00
2023-05-05T07:00:15.256Z,100.00
2023-05-05T07:01:17.356Z,100.00
2023-05-05T07:02:23.020Z,100.00
2023-05-05T07:03:28.828Z,100.00
2023-05-05T07:04:33.533Z,100.00
2023-05-05T07:05:38.175Z,100.00
2023-05-05T07:06:40.259Z,100.00
2023-05-05T07:07:54.276Z,100.00
2023-05-05T07:08:56.365Z,100.00
2023-05-05T07:10:01.247Z,100.00
2023-05-05T07:11:06.168Z,100.00
2023-05-05T07:12:08.544Z,99.94
2023-05-05T07:13:13.278Z,99.16
2023-05-05T07:14:15.437Z,95.14
2023-05-05T07:15:28.671Z,97.77
2023-05-05T07:16:34.942Z,97.79
2023-05-05T07:17:37.057Z,96.40
2023-05-05T07:18:44.368Z,95.54
2023-05-05T07:19:46.475Z,95.64
2023-05-05T07:20:51.976Z,97.85
2023-05-05T07:21:54.063Z,100.00
2023-05-05T07:22:58.745Z,100.00
2023-05-05T07:24:03.716Z,97.38
2023-05-05T07:25:06.984Z,98.43
2023-05-05T07:26:11.844Z,95.71
2023-05-05T07:27:14.175Z,97.52
2023-05-05T07:28:19.018Z,97.10
2023-05-05T07:29:21.492Z,96.53
2023-05-05T07:30:26.810Z,97.78
2023-05-05T07:31:29.000Z,95.37
2023-05-05T07:32:33.821Z,97.33
2023-05-05T07:33:38.578Z,98.85
2023-05-05T07:34:43.253Z,96.41
2023-05-05T07:35:48.009Z,95.85
2023-05-05T07:36:52.781Z,96.85
2023-05-05T07:37:54.869Z,97.88
2023-05-05T07:38:59.569Z,100.00
2023-05-05T07:40:04.196Z,99.03
2023-05-05T07:41:11.719Z,95.31
2023-05-05T07:42:13.768Z,96.57
2023-05-05T07:43:18.458Z,93.14
2023-05-05T07:44:20.786Z,92.94
2023-05-05T07:45:25.746Z,94.11
2023-05-05T07:46:27.905Z,92.88
2023-05-05T07:47:32.736Z,89.34
2023-05-05T07:48:34.966Z,89.88
2023-05-05T07:49:39.686Z,90.92
2023-05-05T07:50:46.998Z,91.73
2023-05-05T07:51:50.422Z,93.97
2023-05-05T07:53:02.362Z,89.98
2023-05-05T07:54:15.690Z,88.80
2023-05-05T07:55:20.492Z,88.21
2023-05-05T07:56:25.192Z,86.15
2023-05-05T07:57:27.212Z,84.65
2023-05-05T07:58:31.859Z,85.89
2023-05-05T07:59:34.796Z,85.12
2023-05-05T08:00:39.517Z,86.80
2023-05-05T08:01:44.679Z,89.68
2023-05-05T08:02:48.158Z,89.47
2023-05-05T08:03:53.041Z,87.44
2023-05-05T08:04:57.717Z,88.71
2023-05-05T08:06:07.910Z,81.57
2023-05-05T08:07:12.724Z,79.58
2023-05-05T08:08:17.391Z,81.71
2023-05-05T08:09:19.420Z,82.96
2023-05-05T08:10:24.838Z,83.04
2023-05-05T08:11:28.991Z,83.23
2023-05-05T08:12:34.179Z,80.25
2023-05-05T08:13:36.309Z,81.60
2023-05-05T08:14:42.822Z,80.38
2023-05-05T08:15:48.028Z,78.35
2023-05-05T08:16:50.077Z,80.48
2023-05-05T08:17:56.230Z,77.76
2023-05-05T08:18:58.314Z,73.54
2023-05-05T08:20:02.928Z,74.84
2023-05-05T08:21:08.907Z,73.73
2023-05-05T08:22:13.545Z,72.97
2023-05-05T08:23:15.582Z,72.13
2023-05-05T08:24:20.333Z,71.83
2023-05-05T08:25:27.098Z,74.14
2023-05-05T08:26:31.772Z,72.48
2023-05-05T08:27:35.813Z,72.78
2023-05-05T08:28:40.584Z,71.74
2023-05-05T08:29:42.670Z,72.45
2023-05-05T08:30:47.318Z,70.58
2023-05-05T08:31:49.472Z,72.60
2023-05-05T08:32:54.200Z,72.37
2023-05-05T08:33:56.272Z,70.69
2023-05-05T08:35:00.992Z,69.30
2023-05-05T08:36:05.694Z,69.25
2023-05-05T08:37:10.295Z,68.86
2023-05-05T08:38:15.154Z,70.82
2023-05-05T08:39:20.082Z,70.13
2023-05-05T08:40:29.800Z,69.73
2023-05-05T08:41:31.887Z,72.63
2023-05-05T08:42:39.168Z,71.55
2023-05-05T08:43:46.426Z,73.50
2023-05-05T08:44:48.570Z,73.27
2023-05-05T08:45:54.224Z,70.70
2023-05-05T08:46:56.942Z,71.00
2023-05-05T08:48:04.511Z,70.80
2023-05-05T08:49:16.860Z,69.42
2023-05-05T08:50:23.339Z,69.50
2023-05-05T08:51:32.323Z,69.61
2023-05-05T08:52:44.579Z,70.18
2023-05-05T08:54:05.365Z,68.10
2023-05-05T08:55:27.463Z,68.52
2023-05-05T08:56:40.941Z,70.72
2023-05-05T08:57:53.439Z,70.25
2023-05-05T08:58:59.939Z,67.05
2023-05-05T09:00:03.060Z,65.52
2023-05-05T09:01:09.912Z,66.42
2023-05-05T09:02:15.885Z,64.47
2023-05-05T09:03:18.644Z,64.40
2023-05-05T09:04:23.952Z,65.23
2023-05-05T09:05:29.394Z,66.12
2023-05-05T09:06:35.022Z,69.46
2023-05-05T09:07:41.474Z,67.78
2023-05-05T09:08:46.421Z,69.85
2023-05-05T09:09:49.596Z,69.20
2023-05-05T09:10:54.724Z,71.07
2023-05-05T09:12:02.191Z,74.17
2023-05-05T09:13:05.348Z,74.89
2023-05-05T09:14:10.088Z,78.26
2023-05-05T09:15:14.450Z,78.08
2023-05-05T09:16:19.214Z,77.69
2023-05-05T09:17:25.561Z,79.61
2023-05-05T09:18:30.361Z,83.95
2023-05-05T09:19:32.470Z,81.79
2023-05-05T09:20:38.256Z,83.24
2023-05-05T09:21:47.905Z,85.07
2023-05-05T09:22:55.123Z,85.00
2023-05-05T09:24:11.166Z,86.62
2023-05-05T09:25:16.856Z,87.15
2023-05-05T09:26:18.876Z,86.27
2023-05-05T09:27:27.359Z,90.13
2023-05-05T09:28:32.365Z,93.32
2023-05-05T09:29:37.061Z,94.22
2023-05-05T09:30:42.970Z,96.09
2023-05-05T09:31:47.948Z,93.44
2023-05-05T09:32:52.039Z,94.70
2023-05-05T09:34:00.878Z,95.80
2023-05-05T09:35:02.949Z,96.74
2023-05-05T09:36:08.088Z,97.04
2023-05-05T09:37:12.728Z,99.79
2023-05-05T09:38:17.885Z,98.69
2023-05-05T09:39:23.595Z,100.00
2023-05-05T09:40:25.724Z,100.00
2023-05-05T09:41:40.122Z,100.00
2023-05-05T09:42:44.972Z,100.00
2023-05-05T09:43:52.122Z,100.00
2023-05-05T09:44:59.692Z,100.00
2023-05-05T09:46:08.701Z,100.00
2023-05-05T09:47:22.370Z,100.00
2023-05-05T09:48:32.809Z,100.00
2023-05-05T09:49:37.560Z,100.00
2023-05-05T09:50:44.135Z,100.00
2023-05-05T09:51:49.230Z,100.00
2023-05-05T09:53:00.904Z,100.00
2023-05-05T09:54:05.730Z,100.00
2023-05-05T09:55:20.305Z,100.00
2023-05-05T09:56:24.954Z,100.00
2023-05-05T09:57:31.844Z,100.00
2023-05-05T09:58:34.026Z,100.00
2023-05-05T09:59:39.249Z,100.00
2023-05-05T10:00:41.692Z,100.00
2023-05-05T10:01:46.461Z,100.00
2023-05-05T10:02:48.733Z,100.00
2023-05-05T10:03:54.626Z,100.00
2023-05-05T10:05:05.657Z,100.00
2023-05-05T10:06:10.944Z,100.00
2023-05-05T10:07:23.731Z,100.00
2023-05-05T10:08:30.916Z,100.00
2023-05-05T10:09:35.899Z,100.00
2023-05-05T10:10:49.060Z,100.00
2023-05-05T10:11:51.656Z,100.00
2023-05-05T10:12:58.766Z,100.00
2023-05-05T10:14:02.370Z,100.00
2023-05-05T10:15:09.194Z,100.00
2023-05-05T10:16:15.667Z,100.00
2023-05-05T10:17:18.821Z,100.00
2023-05-05T10:18:25.934Z,100.00
2023-05-05T10:19:32.574Z,100.00
2023-05-05T10:20:41.655Z,100.00
2023-05-05T10:21:49.633Z,100.00
2023-05-05T10:22:55.580Z,100.00
2023-05-05T10:24:05.206Z,100.00
2023-05-05T10:25:15.709Z,100.00
2023-05-05T10:26:25.140Z,100.00
2023-05-05T10:27:31.914Z,100.00
2023-05-05T10:28:35.320Z,100.00
2023-05-05T10:29:46.752Z,100.00
2023-05-05T10:33:00.867Z,100.00
2023-05-05T10:34:13.629Z,100.00
2023-05-05T10:35:21.169Z,99.48
2023-05-05T10:36:28.059Z,92.63
2023-05-05T10:37:30.882Z,90.37
2023-05-05T10:38:36.298Z,88.61
2023-05-05T10:39:38.742Z,78.69
2023-05-05T10:40:49.429Z,79.63
2023-05-05T10:41:52.195Z,95.21
2023-05-05T10:42:57.942Z,100.00
2023-05-05T10:44:02.842Z,99.48
2023-05-05T10:45:12.490Z,99.89
2023-05-05T10:46:17.495Z,100.00
2023-05-05T10:47:21.529Z,100.00
2023-05-05T10:48:36.136Z,100.00
2023-05-05T10:49:50.756Z,100.00
2023-05-05T10:50:56.941Z,100.00
2023-05-05T10:52:12.558Z,100.00
2023-05-05T10:53:22.267Z,100.00
2023-05-05T10:54:38.340Z,100.00
2023-05-05T10:55:54.763Z,100.00
2023-05-05T10:56:58.264Z,100.00
2023-05-05T10:58:02.928Z,100.00
2023-05-05T10:59:43.262Z,100.00
2023-05-05T11:00:53.706Z,100.00
2023-05-05T11:01:55.802Z,100.00
2023-05-05T11:03:25.048Z,100.00
2023-05-05T11:04:27.188Z,97.54
2023-05-05T11:05:31.988Z,79.27
2023-05-05T11:06:34.090Z,85.96
2023-05-05T11:07:39.366Z,73.49
2023-05-05T11:08:43.383Z,75.18
2023-05-05T11:09:58.570Z,69.66
2023-05-05T11:11:06.240Z,66.33
2023-05-05T11:12:09.202Z,64.97
2023-05-05T11:13:23.924Z,59.85
2023-05-05T11:14:26.097Z,61.74
2023-05-05T11:15:40.658Z,60.05
2023-05-05T11:16:44.617Z,62.29
2023-05-05T11:17:49.942Z,61.52
2023-05-05T11:18:54.635Z,61.48
2023-05-05T11:19:56.685Z,58.92
2023-05-05T11:21:15.906Z,65.31
2023-05-05T11:22:20.550Z,70.13
2023-05-05T11:23:23.123Z,72.08
2023-05-05T11:24:31.857Z,72.42
2023-05-05T11:25:52.161Z,68.68
2023-05-05T11:26:59.488Z,68.79
2023-05-05T11:28:05.248Z,68.64
2023-05-05T11:29:09.925Z,73.04
2023-05-05T11:30:13.632Z,73.83
2023-05-05T11:31:22.228Z,69.77
2023-05-05T11:32:26.954Z,68.12
2023-05-05T11:33:30.614Z,66.69
2023-05-05T11:34:35.295Z,65.18
2023-05-05T11:35:55.069Z,71.89
2023-05-05T11:37:03.342Z,69.10
2023-05-05T11:38:08.437Z,73.39
2023-05-05T11:39:23.466Z,72.02
2023-05-05T11:40:32.600Z,78.57
2023-05-05T11:42:10.671Z,74.12
2023-05-05T11:43:15.788Z,75.19
2023-05-05T11:44:20.471Z,70.03
2023-05-05T11:45:26.323Z,70.52
2023-05-05T11:46:28.580Z,69.71
2023-05-05T11:47:36.466Z,65.50
2023-05-05T11:48:48.953Z,65.21
2023-05-05T11:49:53.623Z,62.29
2023-05-05T11:50:58.315Z,65.38
2023-05-05T11:52:02.015Z,66.99
2023-05-05T11:53:07.760Z,66.97
2023-05-05T11:54:09.873Z,60.68
2023-05-05T11:55:14.746Z,59.59
2023-05-05T11:56:19.394Z,59.83
2023-05-05T11:57:31.921Z,60.28
2023-05-05T11:58:36.585Z,59.32
2023-05-05T11:59:51.210Z,58.41
2023-05-05T12:00:55.858Z,55.51
2023-05-05T12:03:50.220Z,52.68
2023-05-05T12:04:53.011Z,51.38
2023-05-05T12:05:57.844Z,51.03
2023-05-05T12:07:00.230Z,49.24
2023-05-05T12:08:05.075Z,48.62
2023-05-05T12:09:08.546Z,49.40
2023-05-05T12:10:13.971Z,48.52
2023-05-05T12:11:16.025Z,46.96
2023-05-05T12:12:21.082Z,44.82
2023-05-05T12:13:28.406Z,43.57
2023-05-05T12:14:37.328Z,43.77
2023-05-05T12:15:55.662Z,44.67
2023-05-05T12:17:26.997Z,43.46
2023-05-05T12:18:39.985Z,43.84
2023-05-05T12:19:56.477Z,44.43
2023-05-05T12:21:19.580Z,44.78
2023-05-05T12:22:28.348Z,45.07
2023-05-05T12:23:55.488Z,45.79
2023-05-05T12:24:59.599Z,49.03
2023-05-05T12:26:11.230Z,48.19
2023-05-05T12:27:16.394Z,48.77
2023-05-05T12:28:28.157Z,45.68
2023-05-05T12:29:51.233Z,45.64
2023-05-05T12:31:19.200Z,44.69
2023-05-05T12:32:43.635Z,43.96
2023-05-05T12:34:05.250Z,43.53
2023-05-05T12:35:16.341Z,43.53
2023-05-05T12:36:44.001Z,44.49
2023-05-05T12:37:55.267Z,46.49
2023-05-05T12:39:00.681Z,44.95
2023-05-05T12:40:15.940Z,44.11
2023-05-05T12:41:38.981Z,44.83
2023-05-05T12:44:16.777Z,42.22
2023-05-05T12:45:25.306Z,41.89
2023-05-05T12:46:49.466Z,40.08
2023-05-05T12:48:01.283Z,37.85
2023-05-05T12:49:22.142Z,37.57
2023-05-05T12:50:36.569Z,38.33
2023-05-05T12:52:09.361Z,38.13
2023-05-05T12:53:34.561Z,45.33
2023-05-05T12:54:56.592Z,40.77
2023-05-05T12:56:02.759Z,40.20
2023-05-05T12:57:18.428Z,39.50
2023-05-05T12:58:26.637Z,38.31
2023-05-05T12:59:38.084Z,38.17
2023-05-05T13:02:37.864Z,37.81
2023-05-05T13:03:49.707Z,37.26
2023-05-05T13:05:05.633Z,37.99
2023-05-05T13:06:28.332Z,39.24
2023-05-05T13:07:43.774Z,38.53
2023-05-05T13:09:00.873Z,37.17
2023-05-05T13:10:26.379Z,40.43
2023-05-05T13:11:51.614Z,38.52
2023-05-05T13:13:10.171Z,37.80
2023-05-05T13:14:18.921Z,37.82
2023-05-05T13:15:45.365Z,37.88
2023-05-05T13:16:57.266Z,37.45
2023-05-05T13:18:08.883Z,37.33
2023-05-05T13:19:21.647Z,37.54
2023-05-05T13:22:27.187Z,36.92
2023-05-05T13:23:30.283Z,37.94
2023-05-05T13:24:51.807Z,38.31
2023-05-05T13:26:13.359Z,37.92
2023-05-05T13:27:43.626Z,36.34
2023-05-05T13:28:55.806Z,35.91
2023-05-05T13:30:09.847Z,35.83
2023-05-05T13:31:41.257Z,36.50
2023-05-05T13:32:48.700Z,37.01
2023-05-05T13:33:50.993Z,37.10
2023-05-05T13:34:55.680Z,37.09
2023-05-05T13:35:57.777Z,38.53
2023-05-05T13:37:02.417Z,39.47
2023-05-05T13:38:04.468Z,39.90
2023-05-05T13:39:09.113Z,40.51
2023-05-05T13:40:14.656Z,39.40
2023-05-05T13:41:16.773Z,40.73
2023-05-05T13:42:21.508Z,42.24
2023-05-05T13:43:23.575Z,42.50
2023-05-05T13:44:28.370Z,43.24
2023-05-05T13:45:30.669Z,42.69
2023-05-05T13:46:35.391Z,43.03
2023-05-05T13:47:37.981Z,42.93
2023-05-05T13:48:45.264Z,43.33
2023-05-05T13:49:50.298Z,43.76
2023-05-05T13:50:52.346Z,43.45
2023-05-05T13:51:57.582Z,43.89
2023-05-05T13:52:59.603Z,43.45
2023-05-05T13:54:04.362Z,43.89
2023-05-05T13:55:10.700Z,42.91
2023-05-05T13:56:12.927Z,42.37
2023-05-05T13:57:17.587Z,42.53
2023-05-05T13:58:20.079Z,42.89
2023-05-05T13:59:25.969Z,41.89
2023-05-05T14:00:31.825Z,41.65
2023-05-05T14:01:36.582Z,41.14
2023-05-05T14:02:38.739Z,42.34
2023-05-05T14:03:45.993Z,41.80
2023-05-05T14:04:50.751Z,42.46
2023-05-05T14:05:52.918Z,42.72
2023-05-05T14:06:58.457Z,42.13
2023-05-05T14:08:00.568Z,44.10
2023-05-05T14:09:06.545Z,44.92
2023-05-05T14:10:09.627Z,45.19